Rochester, Minnesota
Current Conditions -  °F | °C
As of 8:54 PM on Monday 20 Oct 2014 (Local Time) from KRST Reporting Station
Clear Clear  
Wind Chill: 45°   Ceiling: Unl
Heat Index: 48°   Visibility: 10mi
Dew Point: 40°   Wind: 7mph
Humidity: 74%   Direction: 30°NNE
Pressure: 30.04"   Gusts: NA
Location:  44.02°N, 92.46°W
Report Text: KRST 210154Z 03006KT 10SM CLR 09/04 A3004 RMK AO2 SLP181 T00890044
Loading
Personal Weather Stations






























Interactive Weather Map
Tropical Storm Tracking
New forecast layout! Learn more

10-Day Weather Forecast

Advertisements
Track Severe Weather on mobile